createdAt,value
2019-03-22T00:00:35.392Z,10.30
2019-03-22T00:03:04.944Z,10.30
2019-03-22T00:05:34.264Z,10.40
2019-03-22T00:08:03.609Z,10.50
2019-03-22T00:10:32.951Z,10.40
2019-03-22T00:13:02.314Z,10.30
2019-03-22T00:15:31.705Z,10.40
2019-03-22T00:18:01.117Z,10.50
2019-03-22T00:20:30.499Z,10.60
2019-03-22T00:22:59.877Z,10.70
2019-03-22T00:25:29.279Z,10.70
2019-03-22T00:27:58.650Z,10.60
2019-03-22T00:30:28.112Z,10.90
2019-03-22T00:32:57.408Z,11.10
2019-03-22T00:35:26.832Z,10.80
2019-03-22T00:37:56.177Z,10.80
2019-03-22T00:40:25.599Z,10.80
2019-03-22T00:42:54.946Z,10.90
2019-03-22T00:45:24.284Z,10.90
2019-03-22T00:47:53.623Z,10.80
2019-03-22T00:50:22.981Z,10.60
2019-03-22T00:52:52.336Z,10.60
2019-03-22T00:55:21.711Z,10.80
2019-03-22T00:57:51.153Z,10.80
2019-03-22T01:00:20.643Z,11.00
2019-03-22T01:02:50.147Z,11.20
2019-03-22T01:05:19.514Z,11.30
2019-03-22T01:07:48.906Z,11.30
2019-03-22T01:10:18.293Z,11.20
2019-03-22T01:12:47.617Z,11.40
2019-03-22T01:15:17.089Z,11.40
2019-03-22T01:17:46.481Z,11.40
2019-03-22T01:20:16.127Z,11.40
2019-03-22T01:22:45.483Z,11.50
2019-03-22T01:25:15.224Z,11.40
2019-03-22T01:27:44.648Z,11.20
2019-03-22T01:30:14.550Z,11.20
2019-03-22T01:32:43.952Z,11.40
2019-03-22T01:35:13.519Z,11.40
2019-03-22T01:37:42.854Z,11.50
2019-03-22T01:40:13.050Z,11.60
2019-03-22T01:42:42.394Z,11.60
2019-03-22T01:45:12.517Z,11.50
2019-03-22T01:47:41.939Z,11.50
2019-03-22T01:50:12.632Z,11.50
2019-03-22T01:52:41.987Z,11.60
2019-03-22T01:55:11.452Z,11.60
2019-03-22T01:57:51.917Z,11.50
2019-03-22T02:00:13.015Z,11.50
2019-03-22T02:02:42.473Z,11.40
2019-03-22T02:05:12.370Z,11.40
2019-03-22T02:07:41.746Z,11.30
2019-03-22T02:10:11.806Z,11.40
2019-03-22T02:12:41.200Z,11.20
2019-03-22T02:15:13.448Z,11.30
2019-03-22T02:17:42.971Z,11.30
2019-03-22T02:20:13.053Z,11.30
2019-03-22T02:22:42.451Z,11.10
2019-03-22T02:25:12.314Z,11.10
2019-03-22T02:27:42.084Z,11.40
2019-03-22T02:30:12.422Z,11.30
2019-03-22T02:32:41.812Z,11.20
2019-03-22T02:35:26.852Z,11.20
2019-03-22T02:37:42.566Z,10.90
2019-03-22T02:40:12.629Z,11.10
2019-03-22T02:42:42.835Z,11.10
2019-03-22T02:45:12.527Z,11.20
2019-03-22T02:47:42.998Z,11.00
2019-03-22T02:50:18.606Z,11.10
2019-03-22T02:52:44.007Z,11.10
2019-03-22T02:55:13.781Z,11.20
2019-03-22T02:57:43.189Z,11.10
2019-03-22T03:00:13.144Z,11.00
2019-03-22T03:02:42.803Z,11.00
2019-03-22T03:05:13.078Z,11.00
2019-03-22T03:07:42.415Z,10.90
2019-03-22T03:10:12.196Z,11.10
2019-03-22T03:12:41.574Z,11.20
2019-03-22T03:15:12.178Z,11.30
2019-03-22T03:17:41.629Z,11.40
2019-03-22T03:20:12.094Z,11.40
2019-03-22T03:22:41.468Z,11.40
2019-03-22T03:25:10.957Z,11.50
2019-03-22T03:27:40.298Z,11.50
2019-03-22T03:30:13.137Z,11.40
2019-03-22T03:32:43.290Z,11.50
2019-03-22T03:35:12.844Z,11.40
2019-03-22T03:37:42.251Z,11.40
2019-03-22T03:40:11.836Z,11.40
2019-03-22T03:42:41.187Z,11.60
2019-03-22T03:45:19.445Z,11.30
2019-03-22T03:47:48.878Z,11.30
2019-03-22T03:50:18.197Z,11.20
2019-03-22T03:52:47.569Z,11.00
2019-03-22T03:55:17.012Z,11.10
2019-03-22T03:57:46.352Z,11.20
2019-03-22T04:00:15.885Z,11.20
2019-03-22T04:02:45.241Z,11.20
2019-03-22T04:05:14.904Z,10.80
2019-03-22T04:07:44.451Z,10.80
2019-03-22T04:10:13.901Z,11.00
2019-03-22T04:12:43.203Z,10.80
2019-03-22T04:15:14.559Z,10.90
2019-03-22T04:17:43.909Z,10.60
2019-03-22T04:20:13.471Z,10.70
2019-03-22T04:22:42.906Z,10.80
2019-03-22T04:25:12.328Z,10.90
2019-03-22T04:27:41.703Z,11.10
2019-03-22T04:30:11.338Z,11.10
2019-03-22T04:32:40.647Z,10.90
2019-03-22T04:35:10.148Z,11.00
2019-03-22T04:37:39.690Z,11.10
2019-03-22T04:40:30.688Z,10.80
2019-03-22T04:43:00.070Z,10.70
2019-03-22T04:45:31.888Z,10.80
2019-03-22T04:48:06.267Z,10.90
2019-03-22T04:50:39.516Z,10.90
2019-03-22T04:53:12.238Z,10.90
2019-03-22T04:55:45.276Z,10.90
2019-03-22T04:58:15.307Z,11.00
2019-03-22T05:00:45.420Z,10.80
2019-03-22T05:03:14.996Z,10.70
2019-03-22T05:05:45.945Z,10.90
2019-03-22T05:08:16.660Z,10.80
2019-03-22T05:10:46.434Z,10.70
2019-03-22T05:13:18.948Z,10.70
2019-03-22T05:15:48.596Z,10.60
2019-03-22T05:18:18.308Z,10.70
2019-03-22T05:20:49.292Z,10.80
2019-03-22T05:23:21.355Z,10.90
2019-03-22T05:25:53.799Z,10.70
2019-03-22T05:28:23.761Z,10.80
2019-03-22T05:31:37.402Z,10.80
2019-03-22T05:34:06.948Z,10.80
2019-03-22T05:36:36.333Z,10.90
2019-03-22T05:39:08.956Z,10.80
2019-03-22T05:41:38.602Z,11.00
2019-03-22T05:44:09.435Z,10.90
2019-03-22T05:46:40.692Z,10.90
2019-03-22T05:49:10.601Z,11.00
2019-03-22T05:51:42.121Z,11.20
2019-03-22T05:54:11.535Z,10.90
2019-03-22T05:56:40.894Z,11.10
2019-03-22T05:59:10.264Z,11.20
2019-03-22T06:01:39.749Z,11.00
2019-03-22T06:04:16.521Z,10.90
2019-03-22T06:06:46.283Z,10.60
2019-03-22T06:09:16.324Z,10.60
2019-03-22T06:11:45.717Z,10.90
2019-03-22T06:14:15.315Z,10.60
2019-03-22T06:16:44.864Z,10.70
2019-03-22T06:19:17.837Z,10.80
2019-03-22T06:21:51.858Z,11.10
2019-03-22T06:24:22.314Z,11.20
2019-03-22T06:26:51.921Z,11.10
2019-03-22T06:29:21.251Z,11.10
2019-03-22T06:31:50.654Z,10.60
2019-03-22T06:34:20.013Z,10.30
2019-03-22T06:36:49.332Z,10.20
2019-03-22T06:39:19.059Z,10.40
2019-03-22T06:41:48.514Z,10.50
2019-03-22T06:44:18.264Z,10.50
2019-03-22T06:46:47.675Z,10.40
2019-03-22T06:49:17.091Z,10.40
2019-03-22T06:51:46.509Z,10.30
2019-03-22T06:54:15.837Z,10.40
2019-03-22T06:56:45.213Z,10.50
2019-03-22T06:59:14.583Z,10.50
2019-03-22T07:01:44.013Z,10.30
2019-03-22T07:04:13.475Z,10.20
2019-03-22T07:06:42.892Z,10.20
2019-03-22T07:09:12.408Z,10.10
2019-03-22T07:11:42.066Z,10.20
2019-03-22T07:14:11.545Z,10.50
2019-03-22T07:16:40.907Z,10.80
2019-03-22T07:19:12.380Z,11.10
2019-03-22T07:21:41.775Z,11.30
2019-03-22T07:24:11.201Z,11.30
2019-03-22T07:26:40.912Z,10.90
2019-03-22T07:29:10.275Z,10.80
2019-03-22T07:31:39.787Z,10.60
2019-03-22T07:34:09.180Z,10.40
2019-03-22T07:36:38.640Z,10.40
2019-03-22T07:39:08.711Z,10.50
2019-03-22T07:41:38.183Z,10.50
2019-03-22T07:44:07.572Z,10.80
2019-03-22T07:46:36.956Z,11.00
2019-03-22T07:49:06.302Z,11.20
2019-03-22T07:51:35.828Z,11.50
2019-03-22T07:54:05.446Z,11.60
2019-03-22T07:56:35.006Z,11.10
2019-03-22T07:59:04.482Z,11.00
2019-03-22T08:01:33.916Z,11.20
2019-03-22T08:04:03.306Z,11.30
2019-03-22T08:06:32.831Z,11.30
2019-03-22T08:09:02.245Z,11.50
2019-03-22T08:11:31.718Z,11.60
2019-03-22T08:14:01.189Z,11.50
2019-03-22T08:16:30.722Z,11.40
2019-03-22T08:19:00.071Z,11.10
2019-03-22T08:21:29.498Z,11.20
2019-03-22T08:23:59.054Z,11.20
2019-03-22T08:26:28.480Z,11.00
2019-03-22T08:28:57.982Z,11.00
2019-03-22T08:31:27.523Z,10.90
2019-03-22T08:33:56.983Z,10.70
2019-03-22T08:36:26.356Z,10.70
2019-03-22T08:38:55.964Z,10.80
2019-03-22T08:41:25.383Z,10.80
2019-03-22T08:43:54.895Z,10.80
2019-03-22T08:46:24.382Z,10.90
2019-03-22T08:48:53.872Z,10.90
2019-03-22T08:51:23.208Z,10.70
2019-03-22T08:53:55.793Z,10.40
2019-03-22T08:56:25.981Z,10.50
2019-03-22T08:58:55.516Z,10.70
2019-03-22T09:01:24.924Z,11.00
2019-03-22T09:03:54.440Z,10.90
2019-03-22T09:06:23.869Z,10.90
2019-03-22T09:08:53.722Z,11.00
2019-03-22T09:11:23.321Z,11.00
2019-03-22T09:13:53.849Z,11.30
2019-03-22T09:16:23.612Z,11.20
2019-03-22T09:18:53.035Z,11.10
2019-03-22T09:21:22.465Z,11.30
2019-03-22T09:23:51.961Z,11.40
2019-03-22T09:26:21.689Z,11.20
2019-03-22T09:28:51.432Z,11.70
2019-03-22T09:31:20.878Z,11.90
2019-03-22T09:33:50.197Z,11.70
2019-03-22T09:36:19.715Z,11.60
2019-03-22T09:38:49.067Z,11.70
2019-03-22T09:41:18.577Z,11.60
2019-03-22T09:43:48.004Z,11.20
2019-03-22T09:46:17.490Z,11.70
2019-03-22T09:48:46.930Z,11.90
2019-03-22T09:51:16.335Z,12.00
2019-03-22T09:53:45.678Z,11.80
2019-03-22T09:56:15.111Z,11.40
2019-03-22T09:58:44.536Z,11.20
2019-03-22T10:01:23.565Z,11.30
2019-03-22T10:03:45.250Z,11.20
2019-03-22T10:06:14.642Z,11.10
2019-03-22T10:08:44.135Z,11.40
2019-03-22T10:11:13.516Z,11.90
2019-03-22T10:13:42.961Z,12.10
2019-03-22T10:16:12.411Z,11.90
2019-03-22T10:18:41.881Z,11.20
2019-03-22T10:21:21.950Z,11.10
2019-03-22T10:23:42.535Z,11.30
2019-03-22T10:26:11.983Z,11.10
2019-03-22T10:28:41.433Z,11.00
2019-03-22T10:31:10.853Z,11.20
2019-03-22T10:33:40.295Z,11.40
2019-03-22T10:36:09.715Z,11.60
2019-03-22T10:38:39.135Z,11.40
2019-03-22T10:41:08.669Z,11.30
2019-03-22T10:43:38.062Z,11.40
2019-03-22T10:46:08.086Z,11.50
2019-03-22T10:48:37.861Z,11.70
2019-03-22T10:51:07.335Z,12.00
2019-03-22T10:53:36.877Z,12.10
2019-03-22T10:56:06.302Z,12.30
2019-03-22T10:58:35.646Z,12.20
2019-03-22T11:01:08.153Z,12.20
2019-03-22T11:03:36.266Z,11.40
2019-03-22T11:06:05.832Z,11.20
2019-03-22T11:08:35.312Z,11.40
2019-03-22T11:11:04.784Z,11.60
2019-03-22T11:13:34.204Z,11.80
2019-03-22T11:16:03.963Z,12.20
2019-03-22T11:18:37.321Z,12.10
2019-03-22T11:21:05.698Z,11.50
2019-03-22T11:23:36.760Z,11.70
2019-03-22T11:26:06.285Z,11.60
2019-03-22T11:28:35.652Z,11.60
2019-03-22T11:31:05.650Z,11.70
2019-03-22T11:33:35.143Z,11.90
2019-03-22T11:36:04.790Z,11.80
2019-03-22T11:38:34.231Z,11.90
2019-03-22T11:41:03.794Z,12.10
2019-03-22T11:43:33.775Z,12.20
2019-03-22T11:46:03.433Z,12.20
2019-03-22T11:48:32.893Z,12.20
2019-03-22T11:51:02.416Z,12.00
2019-03-22T11:53:31.854Z,12.20
2019-03-22T11:56:01.240Z,12.00
2019-03-22T11:58:30.732Z,11.90
2019-03-22T12:01:00.624Z,11.90
2019-03-22T12:03:29.985Z,12.00
2019-03-22T12:05:59.477Z,12.00
2019-03-22T12:08:28.883Z,12.10
2019-03-22T12:10:58.357Z,12.20
2019-03-22T12:13:34.804Z,12.40
2019-03-22T12:16:17.152Z,12.50
2019-03-22T12:18:46.740Z,12.40
2019-03-22T12:21:25.102Z,12.80
2019-03-22T12:23:54.546Z,13.00
2019-03-22T12:26:23.922Z,12.90
2019-03-22T12:28:53.303Z,12.50
2019-03-22T12:31:22.693Z,12.60
2019-03-22T12:33:52.119Z,12.50
2019-03-22T12:36:21.649Z,12.60
2019-03-22T12:38:53.142Z,12.60
2019-03-22T12:41:22.657Z,12.50
2019-03-22T12:43:52.099Z,12.60
2019-03-22T12:46:21.471Z,12.10
2019-03-22T12:48:54.368Z,11.70
2019-03-22T12:51:25.532Z,12.20
2019-03-22T12:53:54.953Z,11.60
2019-03-22T12:56:24.556Z,11.60
2019-03-22T12:58:53.896Z,11.90
2019-03-22T13:01:23.316Z,12.20
2019-03-22T13:03:52.643Z,12.60
2019-03-22T13:06:22.057Z,12.70
2019-03-22T13:08:51.578Z,12.70
2019-03-22T13:11:21.021Z,13.00
2019-03-22T13:13:50.502Z,13.30
2019-03-22T13:16:20.029Z,13.00
2019-03-22T13:18:50.321Z,12.30
2019-03-22T13:21:19.960Z,12.80
2019-03-22T13:23:49.587Z,13.00
2019-03-22T13:26:19.061Z,12.30
2019-03-22T13:28:48.563Z,12.20
2019-03-22T13:31:17.960Z,11.90
2019-03-22T13:33:47.392Z,12.30
2019-03-22T13:36:17.150Z,12.40
2019-03-22T13:38:46.804Z,12.20
2019-03-22T13:41:16.192Z,12.10
2019-03-22T13:43:46.172Z,12.30
2019-03-22T13:46:15.565Z,12.70
2019-03-22T13:48:44.985Z,12.10
2019-03-22T13:51:14.625Z,12.50
2019-03-22T13:53:44.088Z,12.60
2019-03-22T13:56:13.721Z,12.50
2019-03-22T13:58:43.202Z,12.60
2019-03-22T14:01:12.649Z,12.30
2019-03-22T14:03:42.102Z,12.40
2019-03-22T14:06:11.543Z,12.20
2019-03-22T14:08:40.961Z,12.70
2019-03-22T14:11:10.394Z,12.50
2019-03-22T14:13:39.896Z,12.60
2019-03-22T14:16:09.281Z,12.40
2019-03-22T14:18:38.664Z,12.40
2019-03-22T14:21:07.968Z,12.20
2019-03-22T14:23:37.583Z,12.40
2019-03-22T14:26:07.015Z,12.60
2019-03-22T14:28:36.648Z,12.70
2019-03-22T14:31:06.112Z,12.90
2019-03-22T14:33:35.603Z,12.90
2019-03-22T14:36:05.543Z,13.20
2019-03-22T14:38:35.012Z,13.00
2019-03-22T14:41:05.083Z,12.80
2019-03-22T14:43:35.022Z,12.40
2019-03-22T14:46:04.565Z,12.20
2019-03-22T14:48:34.050Z,12.20
2019-03-22T14:51:03.536Z,12.10
2019-03-22T14:53:32.969Z,12.20
2019-03-22T14:56:02.396Z,12.50
2019-03-22T14:58:31.814Z,12.60
2019-03-22T15:01:01.389Z,12.50
2019-03-22T15:03:30.823Z,12.40
2019-03-22T15:06:00.145Z,12.30
2019-03-22T15:08:29.757Z,12.10
2019-03-22T15:10:59.187Z,12.30
2019-03-22T15:13:49.917Z,12.20
2019-03-22T15:16:37.410Z,11.90
2019-03-22T15:19:31.880Z,11.90
2019-03-22T15:22:11.732Z,11.90
2019-03-22T15:24:55.177Z,11.80
2019-03-22T15:27:43.692Z,11.90
2019-03-22T15:30:41.614Z,12.00
2019-03-22T15:33:34.336Z,12.20
2019-03-22T15:39:00.444Z,13.00
2019-03-22T15:41:30.206Z,12.70
2019-03-22T15:43:59.956Z,12.10
2019-03-22T15:46:29.477Z,12.00
2019-03-22T15:48:59.029Z,11.70
2019-03-22T15:51:28.464Z,11.90
2019-03-22T15:53:57.896Z,12.10
2019-03-22T15:56:27.280Z,12.20
2019-03-22T15:58:56.820Z,12.20
2019-03-22T16:01:26.383Z,12.20
2019-03-22T16:03:55.909Z,11.90
2019-03-22T16:06:25.338Z,11.80
2019-03-22T16:08:54.758Z,11.60
2019-03-22T16:11:24.177Z,11.50
2019-03-22T16:13:56.867Z,11.40
2019-03-22T16:16:26.215Z,11.30
2019-03-22T16:18:55.558Z,11.30
2019-03-22T16:21:25.041Z,11.40
2019-03-22T16:23:54.393Z,11.30
2019-03-22T16:26:23.999Z,11.40
2019-03-22T16:28:53.489Z,11.60
2019-03-22T16:31:22.975Z,12.00
2019-03-22T16:33:54.816Z,12.00
2019-03-22T16:36:23.494Z,11.80
2019-03-22T16:38:52.962Z,11.60
2019-03-22T16:41:22.381Z,11.30
2019-03-22T16:43:51.940Z,11.00
2019-03-22T16:46:21.451Z,10.90
2019-03-22T16:48:50.937Z,10.90
2019-03-22T16:51:20.507Z,10.80
2019-03-22T16:53:50.049Z,10.90
2019-03-22T16:56:19.380Z,11.00
2019-03-22T16:58:48.889Z,11.20
2019-03-22T17:01:18.415Z,11.20
2019-03-22T17:03:47.879Z,11.30
2019-03-22T17:06:17.305Z,11.30
2019-03-22T17:08:46.695Z,11.00
2019-03-22T17:11:16.032Z,11.00
2019-03-22T17:13:45.528Z,11.00
2019-03-22T17:16:15.003Z,11.20
2019-03-22T17:18:44.407Z,11.20
2019-03-22T17:21:13.811Z,11.20
2019-03-22T17:23:43.236Z,11.20
2019-03-22T17:26:12.815Z,11.20
2019-03-22T17:28:42.216Z,11.10
2019-03-22T17:31:11.633Z,11.10
2019-03-22T17:33:41.041Z,11.00
2019-03-22T17:36:10.494Z,11.20
2019-03-22T17:38:39.876Z,11.30
2019-03-22T17:41:09.210Z,11.20
2019-03-22T17:43:38.711Z,11.20
2019-03-22T17:46:08.199Z,11.10
2019-03-22T17:48:37.648Z,11.00
2019-03-22T17:51:07.127Z,11.00
2019-03-22T17:53:36.597Z,10.90
2019-03-22T17:56:06.628Z,11.00
2019-03-22T17:58:36.031Z,11.10
2019-03-22T18:01:05.725Z,11.00
2019-03-22T18:03:35.168Z,11.10
2019-03-22T18:06:06.612Z,11.20
2019-03-22T18:08:37.293Z,11.20
2019-03-22T18:11:07.032Z,11.10
2019-03-22T18:13:38.602Z,11.10
2019-03-22T18:16:08.045Z,11.10
2019-03-22T18:18:37.411Z,11.10
2019-03-22T18:21:06.813Z,11.00
2019-03-22T18:23:36.299Z,11.00
2019-03-22T18:26:05.828Z,11.10
2019-03-22T18:28:35.173Z,10.90
2019-03-22T18:31:04.542Z,10.80
2019-03-22T18:33:33.914Z,10.80
2019-03-22T18:36:03.418Z,10.80
2019-03-22T18:38:33.335Z,10.80
2019-03-22T18:41:02.742Z,10.80
2019-03-22T18:43:32.196Z,10.80
2019-03-22T18:46:01.655Z,10.80
2019-03-22T18:48:31.086Z,10.80
2019-03-22T18:51:01.111Z,10.80
2019-03-22T18:53:31.149Z,10.60
2019-03-22T18:56:00.578Z,10.70
2019-03-22T18:58:30.010Z,10.70
2019-03-22T19:00:59.494Z,10.70
2019-03-22T19:03:28.934Z,10.50
2019-03-22T19:05:58.369Z,10.60
2019-03-22T19:08:27.800Z,10.70
2019-03-22T19:10:57.210Z,10.60
2019-03-22T19:13:30.659Z,10.50
2019-03-22T19:15:57.663Z,10.50
2019-03-22T19:18:27.258Z,10.50
2019-03-22T19:20:56.591Z,10.60
2019-03-22T19:23:25.949Z,10.50
2019-03-22T19:25:55.857Z,10.40
2019-03-22T19:28:25.283Z,10.50
2019-03-22T19:30:54.784Z,10.50
2019-03-22T19:33:24.164Z,10.40
2019-03-22T19:35:53.559Z,10.40
2019-03-22T19:38:23.058Z,10.40
2019-03-22T19:40:52.525Z,10.40
2019-03-22T19:43:22.034Z,10.40
2019-03-22T19:45:51.447Z,10.30
2019-03-22T19:48:20.911Z,10.20
2019-03-22T19:50:50.376Z,10.10
2019-03-22T19:53:20.240Z,10.00
2019-03-22T19:55:49.651Z,9.90
2019-03-22T19:58:19.134Z,10.00
2019-03-22T20:00:48.645Z,9.90
2019-03-22T20:03:18.058Z,9.80
2019-03-22T20:05:47.491Z,9.80
2019-03-22T20:08:16.933Z,9.80
2019-03-22T20:10:46.316Z,9.80
2019-03-22T20:13:15.813Z,9.80
2019-03-22T20:15:47.276Z,9.70
2019-03-22T20:18:16.777Z,9.70
2019-03-22T20:20:46.326Z,9.70
2019-03-22T20:23:15.993Z,9.70
2019-03-22T20:25:45.442Z,9.70
2019-03-22T20:28:14.939Z,9.60
2019-03-22T20:30:46.774Z,9.60
2019-03-22T20:33:16.109Z,9.50
2019-03-22T20:35:45.704Z,9.50
2019-03-22T20:38:15.156Z,9.40
2019-03-22T20:40:44.706Z,9.40
2019-03-22T20:43:14.168Z,9.40
2019-03-22T20:45:43.610Z,9.40
2019-03-22T20:48:13.187Z,9.40
2019-03-22T20:50:42.722Z,9.40
2019-03-22T20:53:12.157Z,9.40
2019-03-22T20:55:41.565Z,9.60
2019-03-22T20:58:11.148Z,9.70
2019-03-22T21:00:40.514Z,9.60
2019-03-22T21:03:09.862Z,9.60
2019-03-22T21:05:39.449Z,9.50
2019-03-22T21:08:08.984Z,9.50
2019-03-22T21:10:38.411Z,9.40
2019-03-22T21:13:07.880Z,9.40
2019-03-22T21:15:37.216Z,9.30
2019-03-22T21:18:06.805Z,9.30
2019-03-22T21:20:36.200Z,9.20
2019-03-22T21:23:05.709Z,9.10
2019-03-22T21:25:35.228Z,9.10
2019-03-22T21:28:04.830Z,9.10
2019-03-22T21:30:34.215Z,9.00
2019-03-22T21:33:03.721Z,9.00
2019-03-22T21:35:37.203Z,8.90
2019-03-22T21:38:10.938Z,8.90
2019-03-22T21:40:35.455Z,8.90
2019-03-22T21:43:04.868Z,8.90
2019-03-22T21:45:34.368Z,8.90
2019-03-22T21:48:03.781Z,8.90
2019-03-22T21:50:33.357Z,8.90
2019-03-22T21:53:02.853Z,8.90
2019-03-22T21:55:32.265Z,8.80
2019-03-22T21:58:01.656Z,8.80
2019-03-22T22:00:31.386Z,8.90
2019-03-22T22:03:00.819Z,8.80
2019-03-22T22:05:30.177Z,8.70
2019-03-22T22:07:59.561Z,8.60
2019-03-22T22:10:28.944Z,8.60
2019-03-22T22:12:58.505Z,8.60
2019-03-22T22:15:27.859Z,8.70
2019-03-22T22:17:57.246Z,8.60
2019-03-22T22:20:29.190Z,8.70
2019-03-22T22:22:58.799Z,8.60
2019-03-22T22:25:28.399Z,8.60
2019-03-22T22:27:57.989Z,8.60
2019-03-22T22:30:27.484Z,8.40
2019-03-22T22:32:57.431Z,8.50
2019-03-22T22:35:26.753Z,8.50
2019-03-22T22:37:56.393Z,8.50
2019-03-22T22:40:25.980Z,8.50
2019-03-22T22:42:55.303Z,8.50
2019-03-22T22:45:24.877Z,8.50
2019-03-22T22:47:54.263Z,8.50
2019-03-22T22:50:23.625Z,8.50
2019-03-22T22:52:52.986Z,8.50
2019-03-22T22:55:22.428Z,8.40
2019-03-22T22:57:51.776Z,8.40
2019-03-22T23:00:21.428Z,8.50
2019-03-22T23:02:50.810Z,8.50
2019-03-22T23:05:20.193Z,8.50
2019-03-22T23:07:49.858Z,8.40
2019-03-22T23:10:19.216Z,8.40
2019-03-22T23:12:48.724Z,8.30
2019-03-22T23:15:18.108Z,8.40
2019-03-22T23:17:47.574Z,8.40
2019-03-22T23:20:16.896Z,8.50
2019-03-22T23:22:46.240Z,8.50
2019-03-22T23:25:15.789Z,8.50
2019-03-22T23:27:45.372Z,8.50
2019-03-22T23:30:15.165Z,8.50
2019-03-22T23:32:44.721Z,8.30
2019-03-22T23:35:14.064Z,8.20
2019-03-22T23:37:43.370Z,8.10
2019-03-22T23:40:12.898Z,8.10
2019-03-22T23:42:42.388Z,8.20
2019-03-22T23:45:12.068Z,8.20
2019-03-22T23:47:41.478Z,8.30
2019-03-22T23:50:11.124Z,8.20
2019-03-22T23:52:40.536Z,8.10
2019-03-22T23:55:10.052Z,8.00
2019-03-22T23:57:41.132Z,7.80
